sensor_id;sensor_type;location;lat;lon;timestamp;temperature;humidity
59771;DHT22;45649;53.014;6.600;2023-06-14T00:01:37;18.60;46.80
59771;DHT22;45649;53.014;6.600;2023-06-14T00:04:04;18.60;46.90
59771;DHT22;45649;53.014;6.600;2023-06-14T00:06:31;18.50;47.10
59771;DHT22;45649;53.014;6.600;2023-06-14T00:08:59;18.50;47.50
59771;DHT22;45649;53.014;6.600;2023-06-14T00:11:24;18.40;47.90
59771;DHT22;45649;53.014;6.600;2023-06-14T00:13:52;18.40;48.20
59771;DHT22;45649;53.014;6.600;2023-06-14T00:16:18;18.30;48.60
59771;DHT22;45649;53.014;6.600;2023-06-14T00:18:45;18.10;49.90
59771;DHT22;45649;53.014;6.600;2023-06-14T00:21:11;18.20;48.70
59771;DHT22;45649;53.014;6.600;2023-06-14T00:23:37;18.20;48.60
59771;DHT22;45649;53.014;6.600;2023-06-14T00:26:03;18.20;48.70
59771;DHT22;45649;53.014;6.600;2023-06-14T00:28:29;18.10;49.30
59771;DHT22;45649;53.014;6.600;2023-06-14T00:30:55;18.10;49.30
59771;DHT22;45649;53.014;6.600;2023-06-14T00:33:20;18.10;49.60
59771;DHT22;45649;53.014;6.600;2023-06-14T00:35:46;18.00;50.10
59771;DHT22;45649;53.014;6.600;2023-06-14T00:38:12;18.00;50.20
59771;DHT22;45649;53.014;6.600;2023-06-14T00:40:38;17.90;50.00
59771;DHT22;45649;53.014;6.600;2023-06-14T00:43:04;17.80;50.30
59771;DHT22;45649;53.014;6.600;2023-06-14T00:45:30;17.70;50.40
59771;DHT22;45649;53.014;6.600;2023-06-14T00:47:57;17.80;51.10
59771;DHT22;45649;53.014;6.600;2023-06-14T00:50:23;17.60;50.60
59771;DHT22;45649;53.014;6.600;2023-06-14T00:52:49;17.70;50.90
59771;DHT22;45649;53.014;6.600;2023-06-14T00:55:16;17.60;51.10
59771;DHT22;45649;53.014;6.600;2023-06-14T00:57:42;17.60;51.30
59771;DHT22;45649;53.014;6.600;2023-06-14T01:00:08;17.60;51.40
59771;DHT22;45649;53.014;6.600;2023-06-14T01:02:39;17.50;51.50
59771;DHT22;45649;53.014;6.600;2023-06-14T01:05:06;17.50;52.90
59771;DHT22;45649;53.014;6.600;2023-06-14T01:15:39;17.40;53.20
59771;DHT22;45649;53.014;6.600;2023-06-14T01:18:06;17.30;53.30
59771;DHT22;45649;53.014;6.600;2023-06-14T01:20:33;17.30;53.50
59771;DHT22;45649;53.014;6.600;2023-06-14T01:23:02;17.20;53.70
59771;DHT22;45649;53.014;6.600;2023-06-14T01:25:28;17.30;53.50
59771;DHT22;45649;53.014;6.600;2023-06-14T01:28:13;17.10;54.40
59771;DHT22;45649;53.014;6.600;2023-06-14T01:30:43;17.10;55.10
59771;DHT22;45649;53.014;6.600;2023-06-14T01:33:19;17.10;54.70
59771;DHT22;45649;53.014;6.600;2023-06-14T01:35:47;17.00;55.20
59771;DHT22;45649;53.014;6.600;2023-06-14T01:38:14;17.00;55.20
59771;DHT22;45649;53.014;6.600;2023-06-14T01:40:44;16.90;56.00
59771;DHT22;45649;53.014;6.600;2023-06-14T01:43:13;16.90;55.60
59771;DHT22;45649;53.014;6.600;2023-06-14T01:45:42;16.90;55.60
59771;DHT22;45649;53.014;6.600;2023-06-14T01:48:09;17.00;55.60
59771;DHT22;45649;53.014;6.600;2023-06-14T01:50:35;17.00;55.00
59771;DHT22;45649;53.014;6.600;2023-06-14T01:53:00;16.90;55.70
59771;DHT22;45649;53.014;6.600;2023-06-14T01:55:26;16.90;56.00
59771;DHT22;45649;53.014;6.600;2023-06-14T01:57:53;16.90;55.60
59771;DHT22;45649;53.014;6.600;2023-06-14T02:00:19;16.80;56.20
59771;DHT22;45649;53.014;6.600;2023-06-14T02:02:45;16.90;56.40
59771;DHT22;45649;53.014;6.600;2023-06-14T02:05:11;16.70;57.30
59771;DHT22;45649;53.014;6.600;2023-06-14T02:07:37;16.80;57.80
59771;DHT22;45649;53.014;6.600;2023-06-14T02:10:04;16.60;58.40
59771;DHT22;45649;53.014;6.600;2023-06-14T02:12:30;16.60;58.20
59771;DHT22;45649;53.014;6.600;2023-06-14T02:14:55;16.50;58.90
59771;DHT22;45649;53.014;6.600;2023-06-14T02:17:22;16.40;59.40
59771;DHT22;45649;53.014;6.600;2023-06-14T02:19:48;16.30;59.90
59771;DHT22;45649;53.014;6.600;2023-06-14T02:22:15;16.40;59.90
59771;DHT22;45649;53.014;6.600;2023-06-14T02:24:41;16.30;59.50
59771;DHT22;45649;53.014;6.600;2023-06-14T02:27:07;16.40;59.00
59771;DHT22;45649;53.014;6.600;2023-06-14T02:29:36;16.40;59.80
59771;DHT22;45649;53.014;6.600;2023-06-14T02:32:02;16.40;59.80
59771;DHT22;45649;53.014;6.600;2023-06-14T02:34:27;16.20;60.40
59771;DHT22;45649;53.014;6.600;2023-06-14T02:36:53;16.20;60.00
59771;DHT22;45649;53.014;6.600;2023-06-14T02:39:21;16.20;60.80
59771;DHT22;45649;53.014;6.600;2023-06-14T02:41:51;16.10;61.10
59771;DHT22;45649;53.014;6.600;2023-06-14T02:44:18;16.10;61.60
59771;DHT22;45649;53.014;6.600;2023-06-14T02:46:44;16.00;61.60
59771;DHT22;45649;53.014;6.600;2023-06-14T02:49:11;16.00;61.80
59771;DHT22;45649;53.014;6.600;2023-06-14T02:51:37;16.00;61.90
59771;DHT22;45649;53.014;6.600;2023-06-14T02:54:02;16.00;62.10
59771;DHT22;45649;53.014;6.600;2023-06-14T02:56:29;15.80;62.90
59771;DHT22;45649;53.014;6.600;2023-06-14T02:58:55;15.90;62.80
59771;DHT22;45649;53.014;6.600;2023-06-14T03:01:20;15.90;63.30
59771;DHT22;45649;53.014;6.600;2023-06-14T03:03:47;15.90;62.80
59771;DHT22;45649;53.014;6.600;2023-06-14T03:06:13;15.90;63.30
59771;DHT22;45649;53.014;6.600;2023-06-14T03:08:40;16.00;63.30
59771;DHT22;45649;53.014;6.600;2023-06-14T03:11:07;15.90;62.90
59771;DHT22;45649;53.014;6.600;2023-06-14T03:13:34;15.80;63.60
59771;DHT22;45649;53.014;6.600;2023-06-14T03:16:00;15.90;63.50
59771;DHT22;45649;53.014;6.600;2023-06-14T03:18:31;15.90;63.40
59771;DHT22;45649;53.014;6.600;2023-06-14T03:21:01;15.80;64.70
59771;DHT22;45649;53.014;6.600;2023-06-14T03:23:27;15.60;66.30
59771;DHT22;45649;53.014;6.600;2023-06-14T03:25:53;15.50;66.30
59771;DHT22;45649;53.014;6.600;2023-06-14T03:28:18;15.60;66.20
59771;DHT22;45649;53.014;6.600;2023-06-14T03:30:44;15.60;65.20
59771;DHT22;45649;53.014;6.600;2023-06-14T03:33:10;15.50;66.50
59771;DHT22;45649;53.014;6.600;2023-06-14T03:35:36;15.60;66.10
59771;DHT22;45649;53.014;6.600;2023-06-14T03:38:02;15.50;66.20
59771;DHT22;45649;53.014;6.600;2023-06-14T03:40:29;15.50;65.80
59771;DHT22;45649;53.014;6.600;2023-06-14T03:42:55;15.60;65.10
59771;DHT22;45649;53.014;6.600;2023-06-14T03:45:21;15.60;65.30
59771;DHT22;45649;53.014;6.600;2023-06-14T03:47:46;15.60;65.80
59771;DHT22;45649;53.014;6.600;2023-06-14T03:50:12;15.60;66.20
59771;DHT22;45649;53.014;6.600;2023-06-14T03:52:38;15.60;67.20
59771;DHT22;45649;53.014;6.600;2023-06-14T03:55:04;15.60;65.60
59771;DHT22;45649;53.014;6.600;2023-06-14T03:57:30;15.60;66.20
59771;DHT22;45649;53.014;6.600;2023-06-14T03:59:56;15.70;66.00
59771;DHT22;45649;53.014;6.600;2023-06-14T04:02:22;15.50;67.60
59771;DHT22;45649;53.014;6.600;2023-06-14T04:04:48;15.50;67.10
59771;DHT22;45649;53.014;6.600;2023-06-14T04:07:16;15.50;68.30
59771;DHT22;45649;53.014;6.600;2023-06-14T04:09:45;15.70;65.50
59771;DHT22;45649;53.014;6.600;2023-06-14T04:12:11;15.70;66.20
59771;DHT22;45649;53.014;6.600;2023-06-14T04:14:38;15.90;65.50
59771;DHT22;45649;53.014;6.600;2023-06-14T04:17:04;16.00;66.10
59771;DHT22;45649;53.014;6.600;2023-06-14T04:19:29;16.10;65.90
59771;DHT22;45649;53.014;6.600;2023-06-14T04:21:55;16.20;65.40
59771;DHT22;45649;53.014;6.600;2023-06-14T04:24:21;16.20;65.00
59771;DHT22;45649;53.014;6.600;2023-06-14T04:26:49;16.30;65.60
59771;DHT22;45649;53.014;6.600;2023-06-14T04:29:15;16.40;64.70
59771;DHT22;45649;53.014;6.600;2023-06-14T04:31:42;16.40;65.40
59771;DHT22;45649;53.014;6.600;2023-06-14T04:34:10;16.40;65.30
59771;DHT22;45649;53.014;6.600;2023-06-14T04:36:42;16.40;65.30
59771;DHT22;45649;53.014;6.600;2023-06-14T04:39:18;16.50;64.80
59771;DHT22;45649;53.014;6.600;2023-06-14T04:41:44;16.50;64.60
59771;DHT22;45649;53.014;6.600;2023-06-14T04:44:10;16.60;64.30
59771;DHT22;45649;53.014;6.600;2023-06-14T04:46:38;16.60;65.80
59771;DHT22;45649;53.014;6.600;2023-06-14T04:49:15;16.60;65.50
59771;DHT22;45649;53.014;6.600;2023-06-14T04:51:44;16.60;64.60
59771;DHT22;45649;53.014;6.600;2023-06-14T04:54:11;16.70;64.00
59771;DHT22;45649;53.014;6.600;2023-06-14T04:56:43;16.70;64.40
59771;DHT22;45649;53.014;6.600;2023-06-14T04:59:10;16.70;65.10
59771;DHT22;45649;53.014;6.600;2023-06-14T05:01:37;16.80;63.40
59771;DHT22;45649;53.014;6.600;2023-06-14T05:04:03;16.80;63.60
59771;DHT22;45649;53.014;6.600;2023-06-14T05:06:29;16.90;63.60
59771;DHT22;45649;53.014;6.600;2023-06-14T05:08:56;16.90;64.20
59771;DHT22;45649;53.014;6.600;2023-06-14T05:11:21;17.00;64.20
59771;DHT22;45649;53.014;6.600;2023-06-14T05:13:49;16.90;64.50
59771;DHT22;45649;53.014;6.600;2023-06-14T05:16:16;16.90;64.70
59771;DHT22;45649;53.014;6.600;2023-06-14T05:18:42;17.00;63.70
59771;DHT22;45649;53.014;6.600;2023-06-14T05:21:08;17.10;63.50
59771;DHT22;45649;53.014;6.600;2023-06-14T05:23:34;17.10;64.90
59771;DHT22;45649;53.014;6.600;2023-06-14T05:26:00;17.10;65.30
59771;DHT22;45649;53.014;6.600;2023-06-14T05:28:28;17.00;65.40
59771;DHT22;45649;53.014;6.600;2023-06-14T05:30:53;17.00;65.30
59771;DHT22;45649;53.014;6.600;2023-06-14T05:33:19;17.10;64.70
59771;DHT22;45649;53.014;6.600;2023-06-14T05:35:45;17.10;65.20
59771;DHT22;45649;53.014;6.600;2023-06-14T05:38:11;17.20;65.70
59771;DHT22;45649;53.014;6.600;2023-06-14T05:40:36;17.30;65.70
59771;DHT22;45649;53.014;6.600;2023-06-14T05:43:02;17.30;64.30
59771;DHT22;45649;53.014;6.600;2023-06-14T05:45:28;17.40;65.10
59771;DHT22;45649;53.014;6.600;2023-06-14T05:47:53;17.40;63.20
59771;DHT22;45649;53.014;6.600;2023-06-14T05:50:20;17.50;64.30
59771;DHT22;45649;53.014;6.600;2023-06-14T05:52:46;17.50;64.30
59771;DHT22;45649;53.014;6.600;2023-06-14T05:55:12;17.60;64.00
59771;DHT22;45649;53.014;6.600;2023-06-14T05:57:38;17.60;63.80
59771;DHT22;45649;53.014;6.600;2023-06-14T06:00:04;17.70;62.70
59771;DHT22;45649;53.014;6.600;2023-06-14T06:02:42;17.80;63.10
59771;DHT22;45649;53.014;6.600;2023-06-14T06:05:12;17.80;63.00
59771;DHT22;45649;53.014;6.600;2023-06-14T06:07:38;17.80;63.40
59771;DHT22;45649;53.014;6.600;2023-06-14T06:10:06;17.80;64.10
59771;DHT22;45649;53.014;6.600;2023-06-14T06:12:32;17.90;63.80
59771;DHT22;45649;53.014;6.600;2023-06-14T06:14:59;17.90;63.30
59771;DHT22;45649;53.014;6.600;2023-06-14T06:17:25;18.00;63.10
59771;DHT22;45649;53.014;6.600;2023-06-14T06:19:51;18.10;62.80
59771;DHT22;45649;53.014;6.600;2023-06-14T06:22:17;18.10;62.50
59771;DHT22;45649;53.014;6.600;2023-06-14T06:24:42;18.20;62.00
59771;DHT22;45649;53.014;6.600;2023-06-14T06:27:08;18.30;61.80
59771;DHT22;45649;53.014;6.600;2023-06-14T06:29:35;18.40;61.20
59771;DHT22;45649;53.014;6.600;2023-06-14T06:32:01;18.50;60.80
59771;DHT22;45649;53.014;6.600;2023-06-14T06:34:27;18.60;60.40
59771;DHT22;45649;53.014;6.600;2023-06-14T06:36:53;18.60;60.60
59771;DHT22;45649;53.014;6.600;2023-06-14T06:39:19;18.60;60.30
59771;DHT22;45649;53.014;6.600;2023-06-14T06:41:44;18.70;59.90
59771;DHT22;45649;53.014;6.600;2023-06-14T06:44:10;18.80;60.00
59771;DHT22;45649;53.014;6.600;2023-06-14T06:46:36;18.90;59.90
59771;DHT22;45649;53.014;6.600;2023-06-14T06:49:09;19.00;58.80
59771;DHT22;45649;53.014;6.600;2023-06-14T06:51:40;19.00;57.90
59771;DHT22;45649;53.014;6.600;2023-06-14T06:54:07;19.10;57.80
59771;DHT22;45649;53.014;6.600;2023-06-14T06:56:34;19.20;58.10
59771;DHT22;45649;53.014;6.600;2023-06-14T06:58:59;19.20;56.40
59771;DHT22;45649;53.014;6.600;2023-06-14T07:01:25;19.30;55.40
59771;DHT22;45649;53.014;6.600;2023-06-14T07:03:51;19.40;55.10
59771;DHT22;45649;53.014;6.600;2023-06-14T07:06:18;19.50;55.30
59771;DHT22;45649;53.014;6.600;2023-06-14T07:08:44;19.50;55.30
59771;DHT22;45649;53.014;6.600;2023-06-14T07:11:10;19.60;54.80
59771;DHT22;45649;53.014;6.600;2023-06-14T07:13:36;19.70;55.40
59771;DHT22;45649;53.014;6.600;2023-06-14T07:16:04;19.70;55.20
59771;DHT22;45649;53.014;6.600;2023-06-14T07:18:31;19.90;54.40
59771;DHT22;45649;53.014;6.600;2023-06-14T07:20:56;20.00;53.10
59771;DHT22;45649;53.014;6.600;2023-06-14T07:23:23;20.00;53.20
59771;DHT22;45649;53.014;6.600;2023-06-14T07:25:49;20.10;52.70
59771;DHT22;45649;53.014;6.600;2023-06-14T07:28:16;20.20;53.00
59771;DHT22;45649;53.014;6.600;2023-06-14T07:30:42;20.20;52.70
59771;DHT22;45649;53.014;6.600;2023-06-14T07:33:08;20.30;51.90
59771;DHT22;45649;53.014;6.600;2023-06-14T07:35:34;20.30;51.90
59771;DHT22;45649;53.014;6.600;2023-06-14T07:38:00;20.50;52.60
59771;DHT22;45649;53.014;6.600;2023-06-14T07:40:25;20.50;50.70
59771;DHT22;45649;53.014;6.600;2023-06-14T07:42:51;20.60;50.80
59771;DHT22;45649;53.014;6.600;2023-06-14T07:45:19;20.70;50.40
59771;DHT22;45649;53.014;6.600;2023-06-14T07:47:45;20.80;50.90
59771;DHT22;45649;53.014;6.600;2023-06-14T07:50:11;20.90;51.10
59771;DHT22;45649;53.014;6.600;2023-06-14T07:52:37;20.90;52.00
59771;DHT22;45649;53.014;6.600;2023-06-14T07:55:03;20.90;50.60
59771;DHT22;45649;53.014;6.600;2023-06-14T07:57:29;20.90;50.00
59771;DHT22;45649;53.014;6.600;2023-06-14T07:59:54;20.90;50.70
59771;DHT22;45649;53.014;6.600;2023-06-14T08:02:20;20.80;50.20
59771;DHT22;45649;53.014;6.600;2023-06-14T08:04:46;21.00;50.50
59771;DHT22;45649;53.014;6.600;2023-06-14T08:07:14;21.00;49.90
59771;DHT22;45649;53.014;6.600;2023-06-14T08:09:40;21.10;50.00
59771;DHT22;45649;53.014;6.600;2023-06-14T08:12:06;21.20;51.30
59771;DHT22;45649;53.014;6.600;2023-06-14T08:14:36;21.30;49.80
59771;DHT22;45649;53.014;6.600;2023-06-14T08:17:01;21.30;48.20
59771;DHT22;45649;53.014;6.600;2023-06-14T08:19:27;21.30;48.30
59771;DHT22;45649;53.014;6.600;2023-06-14T08:21:53;21.40;48.40
59771;DHT22;45649;53.014;6.600;2023-06-14T08:24:23;21.40;46.00
59771;DHT22;45649;53.014;6.600;2023-06-14T08:26:55;21.40;46.10
59771;DHT22;45649;53.014;6.600;2023-06-14T08:29:22;21.60;46.80
59771;DHT22;45649;53.014;6.600;2023-06-14T08:31:47;21.70;46.60
59771;DHT22;45649;53.014;6.600;2023-06-14T08:34:13;21.70;46.50
59771;DHT22;45649;53.014;6.600;2023-06-14T08:36:39;21.70;46.10
59771;DHT22;45649;53.014;6.600;2023-06-14T08:39:05;21.90;45.80
59771;DHT22;45649;53.014;6.600;2023-06-14T08:41:31;21.90;45.90
59771;DHT22;45649;53.014;6.600;2023-06-14T08:43:58;21.90;45.60
59771;DHT22;45649;53.014;6.600;2023-06-14T08:46:26;21.90;46.40
59771;DHT22;45649;53.014;6.600;2023-06-14T08:48:55;22.00;45.80
59771;DHT22;45649;53.014;6.600;2023-06-14T08:51:25;22.10;46.40
59771;DHT22;45649;53.014;6.600;2023-06-14T08:53:54;22.10;44.90
59771;DHT22;45649;53.014;6.600;2023-06-14T08:56:25;22.10;45.00
59771;DHT22;45649;53.014;6.600;2023-06-14T08:58:53;22.10;44.40
59771;DHT22;45649;53.014;6.600;2023-06-14T09:01:20;22.10;43.90
59771;DHT22;45649;53.014;6.600;2023-06-14T09:03:48;22.10;44.10
59771;DHT22;45649;53.014;6.600;2023-06-14T09:06:17;22.30;44.70
59771;DHT22;45649;53.014;6.600;2023-06-14T09:08:46;22.40;44.10
59771;DHT22;45649;53.014;6.600;2023-06-14T09:11:15;22.50;44.70
59771;DHT22;45649;53.014;6.600;2023-06-14T09:13:41;22.50;44.30
59771;DHT22;45649;53.014;6.600;2023-06-14T09:16:08;22.70;44.70
59771;DHT22;45649;53.014;6.600;2023-06-14T09:18:53;22.70;43.60
59771;DHT22;45649;53.014;6.600;2023-06-14T09:21:19;22.60;42.90
59771;DHT22;45649;53.014;6.600;2023-06-14T09:23:47;22.60;43.40
59771;DHT22;45649;53.014;6.600;2023-06-14T09:26:14;22.60;43.60
59771;DHT22;45649;53.014;6.600;2023-06-14T09:28:48;22.60;42.90
59771;DHT22;45649;53.014;6.600;2023-06-14T09:31:19;22.50;43.30
59771;DHT22;45649;53.014;6.600;2023-06-14T09:33:46;22.60;43.70
59771;DHT22;45649;53.014;6.600;2023-06-14T09:36:18;22.70;44.50
59771;DHT22;45649;53.014;6.600;2023-06-14T09:39:00;22.70;42.80
59771;DHT22;45649;53.014;6.600;2023-06-14T09:41:40;22.70;42.50
59771;DHT22;45649;53.014;6.600;2023-06-14T09:44:08;22.80;42.90
59771;DHT22;45649;53.014;6.600;2023-06-14T09:46:35;22.80;41.80
59771;DHT22;45649;53.014;6.600;2023-06-14T09:49:02;22.80;42.40
59771;DHT22;45649;53.014;6.600;2023-06-14T09:51:29;22.90;43.20
59771;DHT22;45649;53.014;6.600;2023-06-14T09:54:02;23.10;43.80
59771;DHT22;45649;53.014;6.600;2023-06-14T09:56:35;23.30;43.00
59771;DHT22;45649;53.014;6.600;2023-06-14T09:59:04;23.40;43.40
59771;DHT22;45649;53.014;6.600;2023-06-14T10:01:31;23.50;43.30
59771;DHT22;45649;53.014;6.600;2023-06-14T10:04:04;23.50;40.80
59771;DHT22;45649;53.014;6.600;2023-06-14T10:06:31;23.40;40.50
59771;DHT22;45649;53.014;6.600;2023-06-14T10:08:59;23.30;42.60
59771;DHT22;45649;53.014;6.600;2023-06-14T10:11:25;23.50;42.10
59771;DHT22;45649;53.014;6.600;2023-06-14T10:13:52;23.40;40.90
59771;DHT22;45649;53.014;6.600;2023-06-14T10:16:27;23.40;41.60
59771;DHT22;45649;53.014;6.600;2023-06-14T10:19:20;23.60;42.00
59771;DHT22;45649;53.014;6.600;2023-06-14T10:24:32;23.50;39.90
59771;DHT22;45649;53.014;6.600;2023-06-14T10:26:59;23.40;39.40
59771;DHT22;45649;53.014;6.600;2023-06-14T10:29:27;23.40;40.30
59771;DHT22;45649;53.014;6.600;2023-06-14T10:31:58;23.50;40.00
59771;DHT22;45649;53.014;6.600;2023-06-14T10:34:28;23.60;41.00
59771;DHT22;45649;53.014;6.600;2023-06-14T10:39:30;23.70;38.80
59771;DHT22;45649;53.014;6.600;2023-06-14T10:41:56;23.70;41.30
59771;DHT22;45649;53.014;6.600;2023-06-14T10:46:49;24.00;39.90
59771;DHT22;45649;53.014;6.600;2023-06-14T10:49:19;24.00;39.60
59771;DHT22;45649;53.014;6.600;2023-06-14T10:51:49;24.20;38.40
59771;DHT22;45649;53.014;6.600;2023-06-14T10:54:16;24.00;37.40
59771;DHT22;45649;53.014;6.600;2023-06-14T10:56:52;23.90;38.50
59771;DHT22;45649;53.014;6.600;2023-06-14T10:59:19;24.10;38.80
59771;DHT22;45649;53.014;6.600;2023-06-14T11:08:08;24.10;36.20
59771;DHT22;45649;53.014;6.600;2023-06-14T11:10:44;24.30;37.90
59771;DHT22;45649;53.014;6.600;2023-06-14T11:13:12;24.30;38.60
59771;DHT22;45649;53.014;6.600;2023-06-14T11:15:39;24.40;37.40
59771;DHT22;45649;53.014;6.600;2023-06-14T11:18:08;24.50;40.40
59771;DHT22;45649;53.014;6.600;2023-06-14T11:20:37;24.40;37.50
59771;DHT22;45649;53.014;6.600;2023-06-14T11:23:03;24.40;36.70
59771;DHT22;45649;53.014;6.600;2023-06-14T11:25:30;24.20;36.60
59771;DHT22;45649;53.014;6.600;2023-06-14T11:27:56;24.20;38.70
59771;DHT22;45649;53.014;6.600;2023-06-14T11:30:23;24.20;39.30
59771;DHT22;45649;53.014;6.600;2023-06-14T11:32:50;24.20;38.10
59771;DHT22;45649;53.014;6.600;2023-06-14T11:35:17;24.00;38.60
59771;DHT22;45649;53.014;6.600;2023-06-14T11:37:44;24.10;38.30
59771;DHT22;45649;53.014;6.600;2023-06-14T11:40:10;24.20;39.50
59771;DHT22;45649;53.014;6.600;2023-06-14T11:42:38;24.20;37.60
59771;DHT22;45649;53.014;6.600;2023-06-14T11:45:07;24.20;37.80
59771;DHT22;45649;53.014;6.600;2023-06-14T11:47:33;24.20;39.70
59771;DHT22;45649;53.014;6.600;2023-06-14T11:50:00;24.20;39.30
59771;DHT22;45649;53.014;6.600;2023-06-14T11:52:26;24.40;38.30
59771;DHT22;45649;53.014;6.600;2023-06-14T11:54:52;24.40;38.20
59771;DHT22;45649;53.014;6.600;2023-06-14T11:57:18;24.50;39.70
59771;DHT22;45649;53.014;6.600;2023-06-14T11:59:44;24.50;36.80
59771;DHT22;45649;53.014;6.600;2023-06-14T12:02:17;24.50;37.20
59771;DHT22;45649;53.014;6.600;2023-06-14T12:04:44;24.50;38.20
59771;DHT22;45649;53.014;6.600;2023-06-14T12:07:13;24.50;37.00
59771;DHT22;45649;53.014;6.600;2023-06-14T12:10:03;24.40;36.60
59771;DHT22;45649;53.014;6.600;2023-06-14T12:12:36;24.40;37.00
59771;DHT22;45649;53.014;6.600;2023-06-14T12:15:06;24.50;38.30
59771;DHT22;45649;53.014;6.600;2023-06-14T12:17:36;24.60;36.90
59771;DHT22;45649;53.014;6.600;2023-06-14T12:20:11;24.50;36.70
59771;DHT22;45649;53.014;6.600;2023-06-14T12:22:52;24.50;37.40
59771;DHT22;45649;53.014;6.600;2023-06-14T12:25:48;24.50;36.60
59771;DHT22;45649;53.014;6.600;2023-06-14T12:28:14;24.50;37.50
59771;DHT22;45649;53.014;6.600;2023-06-14T12:30:40;24.60;38.40
59771;DHT22;45649;53.014;6.600;2023-06-14T12:33:05;24.70;38.40
59771;DHT22;45649;53.014;6.600;2023-06-14T12:35:34;24.90;38.10
59771;DHT22;45649;53.014;6.600;2023-06-14T12:38:00;25.10;40.40
59771;DHT22;45649;53.014;6.600;2023-06-14T12:40:26;25.20;38.30
59771;DHT22;45649;53.014;6.600;2023-06-14T12:42:52;25.20;36.80
59771;DHT22;45649;53.014;6.600;2023-06-14T12:45:17;24.90;35.80
59771;DHT22;45649;53.014;6.600;2023-06-14T12:47:43;24.90;35.20
59771;DHT22;45649;53.014;6.600;2023-06-14T12:50:09;24.70;35.90
59771;DHT22;45649;53.014;6.600;2023-06-14T12:52:35;24.80;36.90
59771;DHT22;45649;53.014;6.600;2023-06-14T12:55:03;25.00;39.40
59771;DHT22;45649;53.014;6.600;2023-06-14T12:57:29;25.10;39.20
59771;DHT22;45649;53.014;6.600;2023-06-14T12:59:54;25.10;38.20
59771;DHT22;45649;53.014;6.600;2023-06-14T13:02:20;25.00;35.40
59771;DHT22;45649;53.014;6.600;2023-06-14T13:04:47;24.80;36.00
59771;DHT22;45649;53.014;6.600;2023-06-14T13:07:13;24.80;36.50
59771;DHT22;45649;53.014;6.600;2023-06-14T13:09:40;24.90;37.10
59771;DHT22;45649;53.014;6.600;2023-06-14T13:12:07;24.80;36.50
59771;DHT22;45649;53.014;6.600;2023-06-14T13:14:33;25.00;38.00
59771;DHT22;45649;53.014;6.600;2023-06-14T13:16:59;25.00;35.90
59771;DHT22;45649;53.014;6.600;2023-06-14T13:19:25;25.10;36.00
59771;DHT22;45649;53.014;6.600;2023-06-14T13:21:51;25.10;37.30
59771;DHT22;45649;53.014;6.600;2023-06-14T13:24:17;25.30;38.10
59771;DHT22;45649;53.014;6.600;2023-06-14T13:26:43;25.20;35.60
59771;DHT22;45649;53.014;6.600;2023-06-14T13:29:08;25.30;36.90
59771;DHT22;45649;53.014;6.600;2023-06-14T13:31:34;25.30;36.30
59771;DHT22;45649;53.014;6.600;2023-06-14T13:34:00;25.30;36.20
59771;DHT22;45649;53.014;6.600;2023-06-14T13:36:25;25.50;38.50
59771;DHT22;45649;53.014;6.600;2023-06-14T13:38:51;25.70;38.80
59771;DHT22;45649;53.014;6.600;2023-06-14T13:41:18;25.80;38.30
59771;DHT22;45649;53.014;6.600;2023-06-14T13:43:44;26.00;37.30
59771;DHT22;45649;53.014;6.600;2023-06-14T13:46:09;25.60;35.20
59771;DHT22;45649;53.014;6.600;2023-06-14T13:48:35;25.30;35.90
59771;DHT22;45649;53.014;6.600;2023-06-14T13:51:01;25.30;38.60
59771;DHT22;45649;53.014;6.600;2023-06-14T13:53:29;25.50;39.10
59771;DHT22;45649;53.014;6.600;2023-06-14T13:55:55;25.70;37.70
59771;DHT22;45649;53.014;6.600;2023-06-14T13:58:23;25.70;34.80
59771;DHT22;45649;53.014;6.600;2023-06-14T14:00:49;25.70;35.90
59771;DHT22;45649;53.014;6.600;2023-06-14T14:03:15;25.80;36.10
59771;DHT22;45649;53.014;6.600;2023-06-14T14:05:41;25.80;34.40
59771;DHT22;45649;53.014;6.600;2023-06-14T14:08:07;25.80;34.80
59771;DHT22;45649;53.014;6.600;2023-06-14T14:10:32;25.50;34.50
59771;DHT22;45649;53.014;6.600;2023-06-14T14:12:58;25.30;35.00
59771;DHT22;45649;53.014;6.600;2023-06-14T14:15:25;25.00;34.50
59771;DHT22;45649;53.014;6.600;2023-06-14T14:17:50;25.10;35.80
59771;DHT22;45649;53.014;6.600;2023-06-14T14:20:17;25.20;35.70
59771;DHT22;45649;53.014;6.600;2023-06-14T14:22:43;25.30;35.40
59771;DHT22;45649;53.014;6.600;2023-06-14T14:25:09;25.40;36.80
59771;DHT22;45649;53.014;6.600;2023-06-14T14:27:36;25.50;38.10
59771;DHT22;45649;53.014;6.600;2023-06-14T14:30:03;25.60;37.70
59771;DHT22;45649;53.014;6.600;2023-06-14T14:32:29;25.70;35.60
59771;DHT22;45649;53.014;6.600;2023-06-14T14:34:55;25.60;34.60
59771;DHT22;45649;53.014;6.600;2023-06-14T14:37:21;25.70;35.90
59771;DHT22;45649;53.014;6.600;2023-06-14T14:39:46;25.60;35.30
59771;DHT22;45649;53.014;6.600;2023-06-14T14:42:12;25.50;33.70
59771;DHT22;45649;53.014;6.600;2023-06-14T14:44:39;25.50;34.00
59771;DHT22;45649;53.014;6.600;2023-06-14T14:47:06;25.50;34.90
59771;DHT22;45649;53.014;6.600;2023-06-14T14:49:32;25.60;35.60
59771;DHT22;45649;53.014;6.600;2023-06-14T14:51:58;25.60;34.50
59771;DHT22;45649;53.014;6.600;2023-06-14T14:54:24;25.40;34.90
59771;DHT22;45649;53.014;6.600;2023-06-14T14:56:51;25.40;35.50
59771;DHT22;45649;53.014;6.600;2023-06-14T14:59:17;25.40;36.60
59771;DHT22;45649;53.014;6.600;2023-06-14T15:01:43;25.30;35.30
59771;DHT22;45649;53.014;6.600;2023-06-14T15:04:09;25.30;36.60
59771;DHT22;45649;53.014;6.600;2023-06-14T15:06:35;25.30;36.10
59771;DHT22;45649;53.014;6.600;2023-06-14T15:09:01;25.10;35.80
59771;DHT22;45649;53.014;6.600;2023-06-14T15:11:27;25.20;35.00
59771;DHT22;45649;53.014;6.600;2023-06-14T15:13:53;25.20;36.70
59771;DHT22;45649;53.014;6.600;2023-06-14T15:16:19;25.30;37.30
59771;DHT22;45649;53.014;6.600;2023-06-14T15:18:45;25.40;36.80
59771;DHT22;45649;53.014;6.600;2023-06-14T15:21:11;25.60;35.90
59771;DHT22;45649;53.014;6.600;2023-06-14T15:23:37;25.80;35.90
59771;DHT22;45649;53.014;6.600;2023-06-14T15:26:03;25.90;35.00
59771;DHT22;45649;53.014;6.600;2023-06-14T15:28:29;25.80;33.20
59771;DHT22;45649;53.014;6.600;2023-06-14T15:30:55;25.80;33.90
59771;DHT22;45649;53.014;6.600;2023-06-14T15:33:21;25.80;33.90
59771;DHT22;45649;53.014;6.600;2023-06-14T15:35:47;25.70;33.50
59771;DHT22;45649;53.014;6.600;2023-06-14T15:38:13;25.60;32.90
59771;DHT22;45649;53.014;6.600;2023-06-14T15:40:39;25.20;32.10
59771;DHT22;45649;53.014;6.600;2023-06-14T15:43:04;25.10;33.30
59771;DHT22;45649;53.014;6.600;2023-06-14T15:45:30;24.90;34.00
59771;DHT22;45649;53.014;6.600;2023-06-14T15:47:57;24.70;34.60
59771;DHT22;45649;53.014;6.600;2023-06-14T15:50:23;24.80;36.90
59771;DHT22;45649;53.014;6.600;2023-06-14T15:52:48;24.70;35.10